sensor_id;sensor_type;location;lat;lon;timestamp;P1;durP1;ratioP1;P2;durP2;ratioP2
22284;SDS011;11311;52.192;20.900;2023-09-30T00:01:08;19.17;;;12.13;;
22284;SDS011;11311;52.192;20.900;2023-09-30T00:03:37;16.48;;;9.95;;
22284;SDS011;11311;52.192;20.900;2023-09-30T00:06:07;21.52;;;11.68;;
22284;SDS011;11311;52.192;20.900;2023-09-30T00:08:36;17.37;;;11.97;;
22284;SDS011;11311;52.192;20.900;2023-09-30T00:11:08;16.70;;;11.38;;
22284;SDS011;11311;52.192;20.900;2023-09-30T00:16:05;13.90;;;11.43;;
22284;SDS011;11311;52.192;20.900;2023-09-30T00:18:34;18.10;;;10.90;;
22284;SDS011;11311;52.192;20.900;2023-09-30T00:21:03;19.70;;;12.30;;
22284;SDS011;11311;52.192;20.900;2023-09-30T00:23:33;16.98;;;12.77;;
22284;SDS011;11311;52.192;20.900;2023-09-30T00:26:02;12.98;;;10.60;;
22284;SDS011;11311;52.192;20.900;2023-09-30T00:28:33;16.83;;;12.55;;
22284;SDS011;11311;52.192;20.900;2023-09-30T00:33:36;15.32;;;12.10;;
22284;SDS011;11311;52.192;20.900;2023-09-30T00:36:06;17.05;;;11.45;;
22284;SDS011;11311;52.192;20.900;2023-09-30T00:38:36;19.45;;;11.18;;
22284;SDS011;11311;52.192;20.900;2023-09-30T00:41:05;18.58;;;11.27;;
22284;SDS011;11311;52.192;20.900;2023-09-30T00:43:35;16.60;;;11.18;;
22284;SDS011;11311;52.192;20.900;2023-09-30T00:46:06;20.05;;;11.65;;
22284;SDS011;11311;52.192;20.900;2023-09-30T00:48:37;16.80;;;10.65;;
22284;SDS011;11311;52.192;20.900;2023-09-30T00:51:06;22.80;;;11.27;;
22284;SDS011;11311;52.192;20.900;2023-09-30T00:53:35;14.82;;;11.30;;
22284;SDS011;11311;52.192;20.900;2023-09-30T00:56:05;14.45;;;11.23;;
22284;SDS011;11311;52.192;20.900;2023-09-30T00:58:35;14.23;;;10.98;;
22284;SDS011;11311;52.192;20.900;2023-09-30T01:01:05;23.02;;;11.18;;
22284;SDS011;11311;52.192;20.900;2023-09-30T01:03:35;13.70;;;9.90;;
22284;SDS011;11311;52.192;20.900;2023-09-30T01:06:05;17.25;;;11.52;;
22284;SDS011;11311;52.192;20.900;2023-09-30T01:08:34;16.50;;;11.50;;
22284;SDS011;11311;52.192;20.900;2023-09-30T01:11:03;13.45;;;10.93;;
22284;SDS011;11311;52.192;20.900;2023-09-30T01:13:32;17.10;;;10.90;;
22284;SDS011;11311;52.192;20.900;2023-09-30T01:16:06;15.90;;;11.90;;
22284;SDS011;11311;52.192;20.900;2023-09-30T01:18:37;19.67;;;12.30;;
22284;SDS011;11311;52.192;20.900;2023-09-30T01:21:07;19.08;;;11.23;;
22284;SDS011;11311;52.192;20.900;2023-09-30T01:23:38;21.20;;;10.50;;
22284;SDS011;11311;52.192;20.900;2023-09-30T01:26:09;15.20;;;11.27;;
22284;SDS011;11311;52.192;20.900;2023-09-30T01:28:39;18.73;;;11.60;;
22284;SDS011;11311;52.192;20.900;2023-09-30T01:31:09;17.30;;;10.98;;
22284;SDS011;11311;52.192;20.900;2023-09-30T01:33:38;17.85;;;11.95;;
22284;SDS011;11311;52.192;20.900;2023-09-30T01:36:06;18.48;;;10.80;;
22284;SDS011;11311;52.192;20.900;2023-09-30T01:38:35;24.58;;;11.15;;
22284;SDS011;11311;52.192;20.900;2023-09-30T01:41:06;19.42;;;12.30;;
22284;SDS011;11311;52.192;20.900;2023-09-30T01:43:35;16.10;;;11.43;;
22284;SDS011;11311;52.192;20.900;2023-09-30T01:46:04;21.60;;;12.10;;
22284;SDS011;11311;52.192;20.900;2023-09-30T01:48:33;22.25;;;12.00;;
22284;SDS011;11311;52.192;20.900;2023-09-30T01:51:03;16.17;;;12.20;;
22284;SDS011;11311;52.192;20.900;2023-09-30T01:53:32;19.30;;;11.57;;
22284;SDS011;11311;52.192;20.900;2023-09-30T01:56:00;16.50;;;11.35;;
22284;SDS011;11311;52.192;20.900;2023-09-30T01:58:30;18.35;;;10.82;;
22284;SDS011;11311;52.192;20.900;2023-09-30T02:01:01;19.40;;;11.55;;
22284;SDS011;11311;52.192;20.900;2023-09-30T02:03:31;18.70;;;12.05;;
22284;SDS011;11311;52.192;20.900;2023-09-30T02:06:00;20.33;;;11.07;;
22284;SDS011;11311;52.192;20.900;2023-09-30T02:08:30;22.55;;;12.63;;
22284;SDS011;11311;52.192;20.900;2023-09-30T02:11:00;16.27;;;11.13;;
22284;SDS011;11311;52.192;20.900;2023-09-30T02:13:28;14.77;;;10.43;;
22284;SDS011;11311;52.192;20.900;2023-09-30T02:15:58;17.70;;;12.48;;
22284;SDS011;11311;52.192;20.900;2023-09-30T02:18:28;16.95;;;12.20;;
22284;SDS011;11311;52.192;20.900;2023-09-30T02:20:59;19.95;;;12.02;;
22284;SDS011;11311;52.192;20.900;2023-09-30T02:23:28;17.42;;;10.82;;
22284;SDS011;11311;52.192;20.900;2023-09-30T02:25:57;13.77;;;10.35;;
22284;SDS011;11311;52.192;20.900;2023-09-30T02:28:26;20.15;;;12.20;;
22284;SDS011;11311;52.192;20.900;2023-09-30T02:30:55;15.20;;;10.57;;
22284;SDS011;11311;52.192;20.900;2023-09-30T02:33:25;17.02;;;10.32;;
22284;SDS011;11311;52.192;20.900;2023-09-30T02:35:54;17.13;;;10.77;;
22284;SDS011;11311;52.192;20.900;2023-09-30T02:38:24;14.07;;;10.90;;
22284;SDS011;11311;52.192;20.900;2023-09-30T02:40:54;19.92;;;13.32;;
22284;SDS011;11311;52.192;20.900;2023-09-30T02:43:23;14.93;;;10.43;;
22284;SDS011;11311;52.192;20.900;2023-09-30T02:45:52;14.05;;;11.07;;
22284;SDS011;11311;52.192;20.900;2023-09-30T02:48:21;16.48;;;10.80;;
22284;SDS011;11311;52.192;20.900;2023-09-30T02:50:51;15.98;;;11.57;;
22284;SDS011;11311;52.192;20.900;2023-09-30T02:53:20;18.30;;;11.48;;
22284;SDS011;11311;52.192;20.900;2023-09-30T02:55:49;23.95;;;12.75;;
22284;SDS011;11311;52.192;20.900;2023-09-30T02:58:23;25.33;;;12.02;;
22284;SDS011;11311;52.192;20.900;2023-09-30T03:00:52;19.80;;;12.35;;
22284;SDS011;11311;52.192;20.900;2023-09-30T03:03:21;17.23;;;11.50;;
22284;SDS011;11311;52.192;20.900;2023-09-30T03:05:53;17.20;;;11.57;;
22284;SDS011;11311;52.192;20.900;2023-09-30T03:08:23;24.05;;;11.32;;
22284;SDS011;11311;52.192;20.900;2023-09-30T03:10:52;17.20;;;11.20;;
22284;SDS011;11311;52.192;20.900;2023-09-30T03:13:22;19.85;;;12.88;;
22284;SDS011;11311;52.192;20.900;2023-09-30T03:15:50;24.48;;;12.15;;
22284;SDS011;11311;52.192;20.900;2023-09-30T03:18:19;15.73;;;11.88;;
22284;SDS011;11311;52.192;20.900;2023-09-30T03:20:51;17.90;;;11.45;;
22284;SDS011;11311;52.192;20.900;2023-09-30T03:23:25;19.40;;;12.18;;
22284;SDS011;11311;52.192;20.900;2023-09-30T03:25:55;18.58;;;12.50;;
22284;SDS011;11311;52.192;20.900;2023-09-30T03:28:26;18.85;;;12.43;;
22284;SDS011;11311;52.192;20.900;2023-09-30T03:30:55;14.70;;;12.05;;
22284;SDS011;11311;52.192;20.900;2023-09-30T03:33:24;23.40;;;11.00;;
22284;SDS011;11311;52.192;20.900;2023-09-30T03:35:53;24.73;;;12.05;;
22284;SDS011;11311;52.192;20.900;2023-09-30T03:38:23;20.55;;;12.63;;
22284;SDS011;11311;52.192;20.900;2023-09-30T03:40:53;21.27;;;12.77;;
22284;SDS011;11311;52.192;20.900;2023-09-30T03:43:22;13.30;;;11.35;;
22284;SDS011;11311;52.192;20.900;2023-09-30T03:45:52;14.15;;;12.05;;
22284;SDS011;11311;52.192;20.900;2023-09-30T03:48:21;19.48;;;12.68;;
22284;SDS011;11311;52.192;20.900;2023-09-30T03:50:50;16.67;;;12.15;;
22284;SDS011;11311;52.192;20.900;2023-09-30T03:53:19;15.75;;;12.45;;
22284;SDS011;11311;52.192;20.900;2023-09-30T03:55:54;19.42;;;11.82;;
22284;SDS011;11311;52.192;20.900;2023-09-30T03:58:23;16.27;;;11.23;;
22284;SDS011;11311;52.192;20.900;2023-09-30T04:00:53;20.15;;;12.15;;
22284;SDS011;11311;52.192;20.900;2023-09-30T04:03:22;16.23;;;10.05;;
22284;SDS011;11311;52.192;20.900;2023-09-30T04:05:51;21.95;;;11.60;;
22284;SDS011;11311;52.192;20.900;2023-09-30T04:08:20;15.13;;;11.40;;
22284;SDS011;11311;52.192;20.900;2023-09-30T04:10:48;15.15;;;10.95;;
22284;SDS011;11311;52.192;20.900;2023-09-30T04:13:19;18.58;;;10.77;;
22284;SDS011;11311;52.192;20.900;2023-09-30T04:15:48;12.90;;;10.52;;
22284;SDS011;11311;52.192;20.900;2023-09-30T04:18:18;18.67;;;11.80;;
22284;SDS011;11311;52.192;20.900;2023-09-30T04:20:49;18.33;;;11.38;;
22284;SDS011;11311;52.192;20.900;2023-09-30T04:23:18;18.45;;;11.20;;
22284;SDS011;11311;52.192;20.900;2023-09-30T04:25:48;14.63;;;11.07;;
22284;SDS011;11311;52.192;20.900;2023-09-30T04:28:18;14.98;;;10.75;;
22284;SDS011;11311;52.192;20.900;2023-09-30T04:30:48;12.75;;;10.90;;
22284;SDS011;11311;52.192;20.900;2023-09-30T04:33:17;20.02;;;11.65;;
22284;SDS011;11311;52.192;20.900;2023-09-30T04:35:47;16.60;;;11.60;;
22284;SDS011;11311;52.192;20.900;2023-09-30T04:38:16;19.35;;;11.75;;
22284;SDS011;11311;52.192;20.900;2023-09-30T04:40:44;16.45;;;10.90;;
22284;SDS011;11311;52.192;20.900;2023-09-30T04:43:15;16.05;;;11.23;;
22284;SDS011;11311;52.192;20.900;2023-09-30T04:45:45;24.25;;;11.50;;
22284;SDS011;11311;52.192;20.900;2023-09-30T04:48:17;12.40;;;10.48;;
22284;SDS011;11311;52.192;20.900;2023-09-30T04:50:45;25.17;;;10.93;;
22284;SDS011;11311;52.192;20.900;2023-09-30T04:53:14;14.32;;;10.25;;
22284;SDS011;11311;52.192;20.900;2023-09-30T04:55:43;17.55;;;10.57;;
22284;SDS011;11311;52.192;20.900;2023-09-30T04:58:12;17.15;;;10.70;;
22284;SDS011;11311;52.192;20.900;2023-09-30T05:00:41;21.58;;;12.85;;
22284;SDS011;11311;52.192;20.900;2023-09-30T05:03:11;15.05;;;10.95;;
22284;SDS011;11311;52.192;20.900;2023-09-30T05:05:41;14.48;;;10.70;;
22284;SDS011;11311;52.192;20.900;2023-09-30T05:08:09;15.18;;;11.40;;
22284;SDS011;11311;52.192;20.900;2023-09-30T05:10:40;13.38;;;11.73;;
22284;SDS011;11311;52.192;20.900;2023-09-30T05:13:09;18.02;;;10.80;;
22284;SDS011;11311;52.192;20.900;2023-09-30T05:15:38;16.20;;;10.10;;
22284;SDS011;11311;52.192;20.900;2023-09-30T05:18:09;20.90;;;10.73;;
22284;SDS011;11311;52.192;20.900;2023-09-30T05:20:39;16.80;;;10.27;;
22284;SDS011;11311;52.192;20.900;2023-09-30T05:23:08;21.33;;;10.77;;
22284;SDS011;11311;52.192;20.900;2023-09-30T05:25:39;14.88;;;10.18;;
22284;SDS011;11311;52.192;20.900;2023-09-30T05:28:09;16.17;;;10.40;;
22284;SDS011;11311;52.192;20.900;2023-09-30T05:30:40;11.43;;;10.27;;
22284;SDS011;11311;52.192;20.900;2023-09-30T05:33:11;21.63;;;9.85;;
22284;SDS011;11311;52.192;20.900;2023-09-30T05:35:43;13.60;;;8.60;;
22284;SDS011;11311;52.192;20.900;2023-09-30T05:38:12;12.23;;;9.60;;
22284;SDS011;11311;52.192;20.900;2023-09-30T05:40:40;17.67;;;9.90;;
22284;SDS011;11311;52.192;20.900;2023-09-30T05:43:11;12.65;;;9.32;;
22284;SDS011;11311;52.192;20.900;2023-09-30T05:45:41;14.43;;;10.23;;
22284;SDS011;11311;52.192;20.900;2023-09-30T05:48:17;19.52;;;10.35;;
22284;SDS011;11311;52.192;20.900;2023-09-30T05:50:47;21.48;;;9.70;;
22284;SDS011;11311;52.192;20.900;2023-09-30T05:53:16;14.13;;;9.25;;
22284;SDS011;11311;52.192;20.900;2023-09-30T05:55:45;11.85;;;9.88;;
22284;SDS011;11311;52.192;20.900;2023-09-30T05:58:14;9.75;;;8.75;;
22284;SDS011;11311;52.192;20.900;2023-09-30T06:00:43;20.25;;;9.55;;
22284;SDS011;11311;52.192;20.900;2023-09-30T06:03:12;9.82;;;8.88;;
22284;SDS011;11311;52.192;20.900;2023-09-30T06:05:41;15.18;;;8.88;;
22284;SDS011;11311;52.192;20.900;2023-09-30T06:08:11;14.50;;;8.65;;
22284;SDS011;11311;52.192;20.900;2023-09-30T06:13:11;10.05;;;8.77;;
22284;SDS011;11311;52.192;20.900;2023-09-30T06:15:40;13.38;;;8.40;;
22284;SDS011;11311;52.192;20.900;2023-09-30T06:18:11;15.60;;;7.57;;
22284;SDS011;11311;52.192;20.900;2023-09-30T06:20:42;14.30;;;8.00;;
22284;SDS011;11311;52.192;20.900;2023-09-30T06:23:12;12.48;;;8.43;;
22284;SDS011;11311;52.192;20.900;2023-09-30T06:25:41;13.32;;;8.63;;
22284;SDS011;11311;52.192;20.900;2023-09-30T06:28:10;10.53;;;9.37;;
22284;SDS011;11311;52.192;20.900;2023-09-30T06:30:40;12.65;;;9.30;;
22284;SDS011;11311;52.192;20.900;2023-09-30T06:33:13;10.70;;;8.90;;
22284;SDS011;11311;52.192;20.900;2023-09-30T06:35:42;10.40;;;9.18;;
22284;SDS011;11311;52.192;20.900;2023-09-30T06:38:19;11.80;;;10.60;;
22284;SDS011;11311;52.192;20.900;2023-09-30T06:40:48;11.63;;;10.48;;
22284;SDS011;11311;52.192;20.900;2023-09-30T06:43:16;18.48;;;11.52;;
22284;SDS011;11311;52.192;20.900;2023-09-30T06:45:46;14.90;;;10.63;;
22284;SDS011;11311;52.192;20.900;2023-09-30T06:48:16;20.70;;;10.13;;
22284;SDS011;11311;52.192;20.900;2023-09-30T06:50:45;14.25;;;10.35;;
22284;SDS011;11311;52.192;20.900;2023-09-30T06:53:16;12.55;;;10.07;;
22284;SDS011;11311;52.192;20.900;2023-09-30T06:55:46;15.13;;;11.10;;
22284;SDS011;11311;52.192;20.900;2023-09-30T07:00:48;12.80;;;11.52;;
22284;SDS011;11311;52.192;20.900;2023-09-30T07:03:18;12.95;;;11.10;;
22284;SDS011;11311;52.192;20.900;2023-09-30T07:05:52;13.32;;;11.88;;
22284;SDS011;11311;52.192;20.900;2023-09-30T07:08:22;13.40;;;11.05;;
22284;SDS011;11311;52.192;20.900;2023-09-30T07:10:53;15.05;;;12.15;;
22284;SDS011;11311;52.192;20.900;2023-09-30T07:15:50;22.20;;;13.48;;
22284;SDS011;11311;52.192;20.900;2023-09-30T07:18:19;15.65;;;12.07;;
22284;SDS011;11311;52.192;20.900;2023-09-30T07:20:48;15.52;;;12.95;;
22284;SDS011;11311;52.192;20.900;2023-09-30T07:23:19;17.83;;;13.35;;
22284;SDS011;11311;52.192;20.900;2023-09-30T07:25:48;16.70;;;14.75;;
22284;SDS011;11311;52.192;20.900;2023-09-30T07:28:18;14.77;;;12.88;;
22284;SDS011;11311;52.192;20.900;2023-09-30T07:30:47;16.83;;;13.88;;
22284;SDS011;11311;52.192;20.900;2023-09-30T07:33:16;16.15;;;13.18;;
22284;SDS011;11311;52.192;20.900;2023-09-30T07:35:46;17.63;;;13.43;;
22284;SDS011;11311;52.192;20.900;2023-09-30T07:38:15;15.30;;;13.30;;
22284;SDS011;11311;52.192;20.900;2023-09-30T07:40:43;21.70;;;13.80;;
22284;SDS011;11311;52.192;20.900;2023-09-30T07:43:12;15.68;;;13.82;;
22284;SDS011;11311;52.192;20.900;2023-09-30T07:45:42;17.10;;;14.55;;
22284;SDS011;11311;52.192;20.900;2023-09-30T07:48:11;15.68;;;13.98;;
22284;SDS011;11311;52.192;20.900;2023-09-30T07:50:41;15.50;;;13.90;;
22284;SDS011;11311;52.192;20.900;2023-09-30T07:53:10;18.55;;;14.48;;
22284;SDS011;11311;52.192;20.900;2023-09-30T07:55:40;17.92;;;14.45;;
22284;SDS011;11311;52.192;20.900;2023-09-30T07:58:08;18.33;;;13.15;;
22284;SDS011;11311;52.192;20.900;2023-09-30T08:00:37;23.20;;;16.42;;
22284;SDS011;11311;52.192;20.900;2023-09-30T08:03:10;16.75;;;14.18;;
22284;SDS011;11311;52.192;20.900;2023-09-30T08:05:39;16.27;;;13.60;;
22284;SDS011;11311;52.192;20.900;2023-09-30T08:08:09;17.83;;;14.57;;
22284;SDS011;11311;52.192;20.900;2023-09-30T08:10:37;16.10;;;14.27;;
22284;SDS011;11311;52.192;20.900;2023-09-30T08:13:06;17.77;;;15.90;;
22284;SDS011;11311;52.192;20.900;2023-09-30T08:15:36;16.55;;;14.88;;
22284;SDS011;11311;52.192;20.900;2023-09-30T08:18:05;19.98;;;15.30;;
22284;SDS011;11311;52.192;20.900;2023-09-30T08:20:37;17.00;;;15.23;;
22284;SDS011;11311;52.192;20.900;2023-09-30T08:25:34;19.15;;;16.45;;
22284;SDS011;11311;52.192;20.900;2023-09-30T08:28:03;16.60;;;14.98;;
22284;SDS011;11311;52.192;20.900;2023-09-30T08:30:32;17.23;;;15.73;;
22284;SDS011;11311;52.192;20.900;2023-09-30T08:33:03;21.50;;;15.18;;
22284;SDS011;11311;52.192;20.900;2023-09-30T08:35:36;18.35;;;16.45;;
22284;SDS011;11311;52.192;20.900;2023-09-30T08:38:05;22.30;;;16.15;;
22284;SDS011;11311;52.192;20.900;2023-09-30T08:40:34;20.73;;;15.30;;
22284;SDS011;11311;52.192;20.900;2023-09-30T08:43:03;18.52;;;16.48;;
22284;SDS011;11311;52.192;20.900;2023-09-30T08:45:33;19.83;;;17.63;;
22284;SDS011;11311;52.192;20.900;2023-09-30T08:48:04;24.73;;;18.15;;
22284;SDS011;11311;52.192;20.900;2023-09-30T08:50:34;23.33;;;17.33;;
22284;SDS011;11311;52.192;20.900;2023-09-30T08:53:06;24.63;;;17.40;;
22284;SDS011;11311;52.192;20.900;2023-09-30T08:55:35;19.85;;;17.02;;
22284;SDS011;11311;52.192;20.900;2023-09-30T08:58:04;25.73;;;19.10;;
22284;SDS011;11311;52.192;20.900;2023-09-30T09:00:33;25.05;;;17.00;;
22284;SDS011;11311;52.192;20.900;2023-09-30T09:03:03;21.98;;;18.13;;
22284;SDS011;11311;52.192;20.900;2023-09-30T09:05:32;19.05;;;16.95;;
22284;SDS011;11311;52.192;20.900;2023-09-30T09:08:03;20.55;;;18.17;;
22284;SDS011;11311;52.192;20.900;2023-09-30T09:10:32;19.48;;;17.55;;
22284;SDS011;11311;52.192;20.900;2023-09-30T09:13:01;25.88;;;18.45;;
22284;SDS011;11311;52.192;20.900;2023-09-30T09:15:32;21.88;;;19.40;;
22284;SDS011;11311;52.192;20.900;2023-09-30T09:18:01;23.05;;;20.65;;
22284;SDS011;11311;52.192;20.900;2023-09-30T09:20:30;25.40;;;21.02;;
22284;SDS011;11311;52.192;20.900;2023-09-30T09:22:59;21.30;;;19.38;;
22284;SDS011;11311;52.192;20.900;2023-09-30T09:25:29;21.75;;;19.55;;
22284;SDS011;11311;52.192;20.900;2023-09-30T09:28:06;24.27;;;20.08;;
22284;SDS011;11311;52.192;20.900;2023-09-30T09:30:37;23.88;;;21.52;;
22284;SDS011;11311;52.192;20.900;2023-09-30T09:33:08;27.80;;;19.35;;
22284;SDS011;11311;52.192;20.900;2023-09-30T09:35:37;26.83;;;20.13;;
22284;SDS011;11311;52.192;20.900;2023-09-30T09:38:07;27.42;;;21.20;;
22284;SDS011;11311;52.192;20.900;2023-09-30T09:40:37;26.17;;;22.38;;
22284;SDS011;11311;52.192;20.900;2023-09-30T09:43:09;25.13;;;22.40;;
22284;SDS011;11311;52.192;20.900;2023-09-30T09:45:38;25.80;;;23.02;;
22284;SDS011;11311;52.192;20.900;2023-09-30T09:48:08;26.35;;;23.58;;
22284;SDS011;11311;52.192;20.900;2023-09-30T09:50:38;27.15;;;24.13;;
22284;SDS011;11311;52.192;20.900;2023-09-30T09:53:07;29.65;;;26.23;;
22284;SDS011;11311;52.192;20.900;2023-09-30T09:55:38;28.90;;;26.17;;
22284;SDS011;11311;52.192;20.900;2023-09-30T09:58:08;31.02;;;27.00;;
22284;SDS011;11311;52.192;20.900;2023-09-30T10:00:38;30.50;;;25.35;;
22284;SDS011;11311;52.192;20.900;2023-09-30T10:03:08;27.15;;;22.65;;
22284;SDS011;11311;52.192;20.900;2023-09-30T10:05:37;25.08;;;22.52;;
22284;SDS011;11311;52.192;20.900;2023-09-30T10:10:36;34.40;;;24.20;;
22284;SDS011;11311;52.192;20.900;2023-09-30T10:13:07;28.92;;;23.48;;
22284;SDS011;11311;52.192;20.900;2023-09-30T10:15:39;28.60;;;24.50;;
22284;SDS011;11311;52.192;20.900;2023-09-30T10:18:09;24.60;;;20.10;;
22284;SDS011;11311;52.192;20.900;2023-09-30T10:20:43;23.65;;;16.75;;
22284;SDS011;11311;52.192;20.900;2023-09-30T10:23:19;18.50;;;13.85;;
22284;SDS011;11311;52.192;20.900;2023-09-30T10:25:48;21.67;;;11.60;;
22284;SDS011;11311;52.192;20.900;2023-09-30T10:28:35;17.02;;;10.00;;
22284;SDS011;11311;52.192;20.900;2023-09-30T10:31:09;13.95;;;9.27;;
22284;SDS011;11311;52.192;20.900;2023-09-30T10:36:49;11.75;;;6.28;;
22284;SDS011;11311;52.192;20.900;2023-09-30T10:51:12;4.80;;;3.03;;
22284;SDS011;11311;52.192;20.900;2023-09-30T10:53:46;7.93;;;4.00;;
22284;SDS011;11311;52.192;20.900;2023-09-30T10:56:15;4.50;;;3.13;;
22284;SDS011;11311;52.192;20.900;2023-09-30T10:58:45;7.20;;;3.58;;
22284;SDS011;11311;52.192;20.900;2023-09-30T11:01:16;5.35;;;3.15;;
22284;SDS011;11311;52.192;20.900;2023-09-30T11:03:46;7.53;;;2.83;;
22284;SDS011;11311;52.192;20.900;2023-09-30T11:06:19;3.95;;;2.60;;
22284;SDS011;11311;52.192;20.900;2023-09-30T11:08:51;8.05;;;2.63;;
22284;SDS011;11311;52.192;20.900;2023-09-30T11:16:58;9.43;;;2.75;;
22284;SDS011;11311;52.192;20.900;2023-09-30T11:19:34;8.95;;;2.97;;
22284;SDS011;11311;52.192;20.900;2023-09-30T11:22:04;8.52;;;3.08;;
22284;SDS011;11311;52.192;20.900;2023-09-30T11:24:34;8.95;;;3.50;;
22284;SDS011;11311;52.192;20.900;2023-09-30T11:27:04;11.18;;;3.20;;
22284;SDS011;11311;52.192;20.900;2023-09-30T11:29:34;4.22;;;2.50;;
22284;SDS011;11311;52.192;20.900;2023-09-30T11:32:04;10.47;;;3.37;;
22284;SDS011;11311;52.192;20.900;2023-09-30T11:34:34;6.75;;;3.38;;
22284;SDS011;11311;52.192;20.900;2023-09-30T11:37:04;9.05;;;4.10;;
22284;SDS011;11311;52.192;20.900;2023-09-30T11:39:33;7.05;;;4.18;;
22284;SDS011;11311;52.192;20.900;2023-09-30T11:42:02;10.60;;;4.07;;
22284;SDS011;11311;52.192;20.900;2023-09-30T11:44:46;9.48;;;3.85;;
22284;SDS011;11311;52.192;20.900;2023-09-30T11:47:23;7.68;;;4.05;;
22284;SDS011;11311;52.192;20.900;2023-09-30T11:49:56;13.10;;;4.90;;
22284;SDS011;11311;52.192;20.900;2023-09-30T11:52:26;7.68;;;3.90;;
22284;SDS011;11311;52.192;20.900;2023-09-30T11:54:55;11.77;;;4.70;;
22284;SDS011;11311;52.192;20.900;2023-09-30T11:57:25;12.67;;;5.17;;
22284;SDS011;11311;52.192;20.900;2023-09-30T11:59:54;9.65;;;4.15;;
22284;SDS011;11311;52.192;20.900;2023-09-30T12:02:25;10.48;;;4.45;;
22284;SDS011;11311;52.192;20.900;2023-09-30T12:04:54;10.73;;;4.32;;
22284;SDS011;11311;52.192;20.900;2023-09-30T12:07:23;15.35;;;5.88;;
22284;SDS011;11311;52.192;20.900;2023-09-30T12:09:51;9.30;;;4.35;;
22284;SDS011;11311;52.192;20.900;2023-09-30T12:12:20;10.50;;;4.05;;
22284;SDS011;11311;52.192;20.900;2023-09-30T12:14:49;9.35;;;4.25;;
22284;SDS011;11311;52.192;20.900;2023-09-30T12:17:18;8.00;;;3.63;;
22284;SDS011;11311;52.192;20.900;2023-09-30T12:19:49;12.38;;;4.45;;
22284;SDS011;11311;52.192;20.900;2023-09-30T12:22:19;11.38;;;4.68;;
22284;SDS011;11311;52.192;20.900;2023-09-30T12:24:49;15.32;;;4.25;;
22284;SDS011;11311;52.192;20.900;2023-09-30T12:27:19;10.48;;;5.03;;
22284;SDS011;11311;52.192;20.900;2023-09-30T12:29:48;9.82;;;4.82;;
22284;SDS011;11311;52.192;20.900;2023-09-30T12:32:17;13.75;;;4.57;;
22284;SDS011;11311;52.192;20.900;2023-09-30T12:34:46;12.73;;;3.95;;
22284;SDS011;11311;52.192;20.900;2023-09-30T12:37:16;9.50;;;3.72;;
22284;SDS011;11311;52.192;20.900;2023-09-30T12:42:14;8.23;;;3.97;;
22284;SDS011;11311;52.192;20.900;2023-09-30T12:44:43;9.02;;;3.83;;
22284;SDS011;11311;52.192;20.900;2023-09-30T12:47:13;13.55;;;5.13;;
22284;SDS011;11311;52.192;20.900;2023-09-30T12:49:42;13.30;;;4.35;;
22284;SDS011;11311;52.192;20.900;2023-09-30T12:52:11;9.45;;;4.38;;
22284;SDS011;11311;52.192;20.900;2023-09-30T12:54:41;11.90;;;5.80;;
22284;SDS011;11311;52.192;20.900;2023-09-30T12:57:10;7.93;;;4.45;;
22284;SDS011;11311;52.192;20.900;2023-09-30T12:59:41;7.72;;;3.80;;
22284;SDS011;11311;52.192;20.900;2023-09-30T13:02:09;8.80;;;3.75;;
22284;SDS011;11311;52.192;20.900;2023-09-30T13:04:38;13.43;;;3.53;;
22284;SDS011;11311;52.192;20.900;2023-09-30T13:07:10;8.68;;;2.90;;
22284;SDS011;11311;52.192;20.900;2023-09-30T13:09:41;9.43;;;3.70;;
22284;SDS011;11311;52.192;20.900;2023-09-30T13:12:10;10.93;;;3.72;;
22284;SDS011;11311;52.192;20.900;2023-09-30T13:14:40;10.13;;;3.22;;
22284;SDS011;11311;52.192;20.900;2023-09-30T13:17:09;7.20;;;3.30;;
22284;SDS011;11311;52.192;20.900;2023-09-30T13:19:41;7.57;;;3.47;;
22284;SDS011;11311;52.192;20.900;2023-09-30T13:22:09;12.15;;;3.45;;
22284;SDS011;11311;52.192;20.900;2023-09-30T13:24:46;4.22;;;2.47;;
22284;SDS011;11311;52.192;20.900;2023-09-30T13:27:15;9.27;;;3.90;;
22284;SDS011;11311;52.192;20.900;2023-09-30T13:29:45;10.38;;;3.55;;
22284;SDS011;11311;52.192;20.900;2023-09-30T13:32:14;7.60;;;3.80;;
22284;SDS011;11311;52.192;20.900;2023-09-30T13:34:45;10.32;;;4.00;;
22284;SDS011;11311;52.192;20.900;2023-09-30T13:39:44;14.20;;;4.05;;
22284;SDS011;11311;52.192;20.900;2023-09-30T13:42:14;7.05;;;3.38;;
22284;SDS011;11311;52.192;20.900;2023-09-30T13:44:44;8.93;;;3.58;;
22284;SDS011;11311;52.192;20.900;2023-09-30T13:49:43;8.13;;;3.33;;
22284;SDS011;11311;52.192;20.900;2023-09-30T13:52:13;10.15;;;3.58;;
22284;SDS011;11311;52.192;20.900;2023-09-30T13:54:42;8.30;;;3.17;;
22284;SDS011;11311;52.192;20.900;2023-09-30T13:57:11;8.98;;;4.05;;
22284;SDS011;11311;52.192;20.900;2023-09-30T13:59:43;12.25;;;3.85;;
22284;SDS011;11311;52.192;20.900;2023-09-30T14:04:40;10.02;;;3.33;;
22284;SDS011;11311;52.192;20.900;2023-09-30T14:07:09;12.10;;;3.53;;
22284;SDS011;11311;52.192;20.900;2023-09-30T14:09:38;7.40;;;2.90;;
22284;SDS011;11311;52.192;20.900;2023-09-30T14:12:07;14.32;;;4.50;;
22284;SDS011;11311;52.192;20.900;2023-09-30T14:14:36;12.82;;;3.83;;
22284;SDS011;11311;52.192;20.900;2023-09-30T14:17:06;10.93;;;3.70;;
22284;SDS011;11311;52.192;20.900;2023-09-30T14:19:37;12.30;;;3.85;;
22284;SDS011;11311;52.192;20.900;2023-09-30T14:22:07;15.75;;;3.97;;
22284;SDS011;11311;52.192;20.900;2023-09-30T14:24:36;12.52;;;4.97;;
22284;SDS011;11311;52.192;20.900;2023-09-30T14:27:06;12.77;;;4.45;;
22284;SDS011;11311;52.192;20.900;2023-09-30T14:29:36;9.33;;;4.27;;
22284;SDS011;11311;52.192;20.900;2023-09-30T14:32:06;10.18;;;3.00;;
22284;SDS011;11311;52.192;20.900;2023-09-30T14:34:35;9.55;;;4.50;;
22284;SDS011;11311;52.192;20.900;2023-09-30T14:37:04;13.30;;;4.10;;
22284;SDS011;11311;52.192;20.900;2023-09-30T14:39:33;10.75;;;3.15;;
22284;SDS011;11311;52.192;20.900;2023-09-30T14:42:02;9.80;;;4.20;;
22284;SDS011;11311;52.192;20.900;2023-09-30T14:44:31;11.55;;;4.35;;
22284;SDS011;11311;52.192;20.900;2023-09-30T14:47:00;18.38;;;3.85;;
22284;SDS011;11311;52.192;20.900;2023-09-30T14:49:31;8.57;;;3.90;;
22284;SDS011;11311;52.192;20.900;2023-09-30T14:52:00;15.55;;;3.58;;
22284;SDS011;11311;52.192;20.900;2023-09-30T14:54:30;12.03;;;4.33;;
22284;SDS011;11311;52.192;20.900;2023-09-30T14:56:59;14.38;;;4.78;;
22284;SDS011;11311;52.192;20.900;2023-09-30T14:59:28;6.78;;;3.70;;
22284;SDS011;11311;52.192;20.900;2023-09-30T15:01:57;14.43;;;4.00;;
22284;SDS011;11311;52.192;20.900;2023-09-30T15:04:26;11.48;;;4.10;;
22284;SDS011;11311;52.192;20.900;2023-09-30T15:06:57;9.38;;;3.95;;
22284;SDS011;11311;52.192;20.900;2023-09-30T15:11:54;11.52;;;4.78;;
22284;SDS011;11311;52.192;20.900;2023-09-30T15:14:23;15.45;;;5.13;;
22284;SDS011;11311;52.192;20.900;2023-09-30T15:16:53;9.43;;;3.60;;
22284;SDS011;11311;52.192;20.900;2023-09-30T15:19:22;8.40;;;3.88;;
22284;SDS011;11311;52.192;20.900;2023-09-30T15:21:51;9.85;;;3.88;;